sensor_id;sensor_type;location;lat;lon;timestamp;P1;durP1;ratioP1;P2;durP2;ratioP2
20956;SDS011;10637;47.970;7.830;2023-08-21T00:03:38;14.40;;;9.03;;
20956;SDS011;10637;47.970;7.830;2023-08-21T00:08:40;16.37;;;9.90;;
20956;SDS011;10637;47.970;7.830;2023-08-21T00:13:42;15.43;;;9.13;;
20956;SDS011;10637;47.970;7.830;2023-08-21T00:18:46;16.13;;;9.23;;
20956;SDS011;10637;47.970;7.830;2023-08-21T00:23:48;19.67;;;9.00;;
20956;SDS011;10637;47.970;7.830;2023-08-21T00:28:49;15.67;;;8.90;;
20956;SDS011;10637;47.970;7.830;2023-08-21T00:33:51;14.23;;;9.03;;
20956;SDS011;10637;47.970;7.830;2023-08-21T00:38:53;15.73;;;9.37;;
20956;SDS011;10637;47.970;7.830;2023-08-21T00:43:55;15.90;;;9.37;;
20956;SDS011;10637;47.970;7.830;2023-08-21T00:48:57;18.37;;;9.37;;
20956;SDS011;10637;47.970;7.830;2023-08-21T00:53:59;14.87;;;9.63;;
20956;SDS011;10637;47.970;7.830;2023-08-21T00:59:01;19.70;;;10.07;;
20956;SDS011;10637;47.970;7.830;2023-08-21T01:04:03;15.43;;;9.43;;
20956;SDS011;10637;47.970;7.830;2023-08-21T01:09:13;15.67;;;9.00;;
20956;SDS011;10637;47.970;7.830;2023-08-21T01:15:00;21.30;;;10.03;;
20956;SDS011;10637;47.970;7.830;2023-08-21T01:20:00;22.37;;;10.03;;
20956;SDS011;10637;47.970;7.830;2023-08-21T01:25:07;17.43;;;9.67;;
20956;SDS011;10637;47.970;7.830;2023-08-21T01:30:12;16.30;;;9.67;;
20956;SDS011;10637;47.970;7.830;2023-08-21T01:35:14;17.40;;;9.67;;
20956;SDS011;10637;47.970;7.830;2023-08-21T01:40:22;15.67;;;9.37;;
20956;SDS011;10637;47.970;7.830;2023-08-21T01:45:25;16.87;;;10.13;;
20956;SDS011;10637;47.970;7.830;2023-08-21T01:50:27;16.63;;;9.40;;
20956;SDS011;10637;47.970;7.830;2023-08-21T01:55:29;14.53;;;9.40;;
20956;SDS011;10637;47.970;7.830;2023-08-21T02:00:31;16.93;;;8.93;;
20956;SDS011;10637;47.970;7.830;2023-08-21T02:05:37;19.27;;;10.17;;
20956;SDS011;10637;47.970;7.830;2023-08-21T02:10:52;15.93;;;9.73;;
20956;SDS011;10637;47.970;7.830;2023-08-21T02:15:54;18.13;;;9.97;;
20956;SDS011;10637;47.970;7.830;2023-08-21T02:20:56;17.60;;;9.87;;
20956;SDS011;10637;47.970;7.830;2023-08-21T02:25:58;16.67;;;9.87;;
20956;SDS011;10637;47.970;7.830;2023-08-21T02:31:00;15.77;;;9.83;;
20956;SDS011;10637;47.970;7.830;2023-08-21T02:36:02;19.87;;;10.37;;
20956;SDS011;10637;47.970;7.830;2023-08-21T02:41:04;17.97;;;10.53;;
20956;SDS011;10637;47.970;7.830;2023-08-21T02:46:06;16.67;;;10.33;;
20956;SDS011;10637;47.970;7.830;2023-08-21T02:51:08;17.63;;;10.27;;
20956;SDS011;10637;47.970;7.830;2023-08-21T02:56:10;18.07;;;10.97;;
20956;SDS011;10637;47.970;7.830;2023-08-21T03:01:12;15.47;;;9.50;;
20956;SDS011;10637;47.970;7.830;2023-08-21T03:06:13;17.23;;;9.97;;
20956;SDS011;10637;47.970;7.830;2023-08-21T03:11:17;19.20;;;11.20;;
20956;SDS011;10637;47.970;7.830;2023-08-21T03:16:19;17.07;;;10.80;;
20956;SDS011;10637;47.970;7.830;2023-08-21T03:21:21;14.90;;;10.20;;
20956;SDS011;10637;47.970;7.830;2023-08-21T03:26:24;14.90;;;10.40;;
20956;SDS011;10637;47.970;7.830;2023-08-21T03:31:26;17.17;;;10.73;;
20956;SDS011;10637;47.970;7.830;2023-08-21T03:36:28;19.23;;;10.50;;
20956;SDS011;10637;47.970;7.830;2023-08-21T03:41:32;15.30;;;10.50;;
20956;SDS011;10637;47.970;7.830;2023-08-21T03:46:34;17.43;;;10.20;;
20956;SDS011;10637;47.970;7.830;2023-08-21T03:51:36;14.90;;;10.23;;
20956;SDS011;10637;47.970;7.830;2023-08-21T03:56:38;17.33;;;10.23;;
20956;SDS011;10637;47.970;7.830;2023-08-21T04:01:39;16.67;;;10.50;;
20956;SDS011;10637;47.970;7.830;2023-08-21T04:06:41;16.03;;;10.57;;
20956;SDS011;10637;47.970;7.830;2023-08-21T04:11:43;16.53;;;9.77;;
20956;SDS011;10637;47.970;7.830;2023-08-21T04:16:45;15.70;;;10.27;;
20956;SDS011;10637;47.970;7.830;2023-08-21T04:21:46;15.93;;;10.23;;
20956;SDS011;10637;47.970;7.830;2023-08-21T04:26:48;18.73;;;10.07;;
20956;SDS011;10637;47.970;7.830;2023-08-21T04:31:50;17.97;;;10.43;;
20956;SDS011;10637;47.970;7.830;2023-08-21T04:36:52;19.20;;;10.67;;
20956;SDS011;10637;47.970;7.830;2023-08-21T04:41:53;16.67;;;10.27;;
20956;SDS011;10637;47.970;7.830;2023-08-21T04:46:55;19.23;;;10.93;;
20956;SDS011;10637;47.970;7.830;2023-08-21T04:51:57;18.80;;;11.50;;
20956;SDS011;10637;47.970;7.830;2023-08-21T04:56:59;16.23;;;11.23;;
20956;SDS011;10637;47.970;7.830;2023-08-21T05:02:00;19.53;;;10.80;;
20956;SDS011;10637;47.970;7.830;2023-08-21T05:07:03;21.73;;;10.53;;
20956;SDS011;10637;47.970;7.830;2023-08-21T05:12:05;16.87;;;10.70;;
20956;SDS011;10637;47.970;7.830;2023-08-21T05:17:08;19.23;;;10.50;;
20956;SDS011;10637;47.970;7.830;2023-08-21T05:22:10;18.70;;;10.67;;
20956;SDS011;10637;47.970;7.830;2023-08-21T05:27:12;22.60;;;10.73;;
20956;SDS011;10637;47.970;7.830;2023-08-21T05:32:13;16.43;;;10.40;;
20956;SDS011;10637;47.970;7.830;2023-08-21T05:37:15;15.57;;;10.50;;
20956;SDS011;10637;47.970;7.830;2023-08-21T05:42:17;17.00;;;10.17;;
20956;SDS011;10637;47.970;7.830;2023-08-21T05:47:19;21.20;;;10.73;;
20956;SDS011;10637;47.970;7.830;2023-08-21T05:52:21;15.77;;;10.20;;
20956;SDS011;10637;47.970;7.830;2023-08-21T05:57:23;17.87;;;10.93;;
20956;SDS011;10637;47.970;7.830;2023-08-21T06:02:25;22.07;;;10.70;;
20956;SDS011;10637;47.970;7.830;2023-08-21T06:07:27;19.33;;;10.23;;
20956;SDS011;10637;47.970;7.830;2023-08-21T06:12:28;17.00;;;10.63;;
20956;SDS011;10637;47.970;7.830;2023-08-21T06:17:30;17.60;;;10.40;;
20956;SDS011;10637;47.970;7.830;2023-08-21T06:22:32;17.67;;;10.40;;
20956;SDS011;10637;47.970;7.830;2023-08-21T06:27:34;15.80;;;10.50;;
20956;SDS011;10637;47.970;7.830;2023-08-21T06:32:48;16.30;;;10.87;;
20956;SDS011;10637;47.970;7.830;2023-08-21T06:37:50;19.13;;;10.10;;
20956;SDS011;10637;47.970;7.830;2023-08-21T06:42:52;16.10;;;10.03;;
20956;SDS011;10637;47.970;7.830;2023-08-21T06:47:54;15.97;;;10.10;;
20956;SDS011;10637;47.970;7.830;2023-08-21T06:52:56;18.17;;;10.07;;
20956;SDS011;10637;47.970;7.830;2023-08-21T06:57:57;18.52;;;10.90;;
20956;SDS011;10637;47.970;7.830;2023-08-21T07:02:59;19.05;;;11.05;;
20956;SDS011;10637;47.970;7.830;2023-08-21T07:08:01;17.38;;;10.75;;
20956;SDS011;10637;47.970;7.830;2023-08-21T07:13:03;18.80;;;10.15;;
20956;SDS011;10637;47.970;7.830;2023-08-21T07:18:05;20.02;;;10.02;;
20956;SDS011;10637;47.970;7.830;2023-08-21T07:23:07;16.42;;;9.52;;
20956;SDS011;10637;47.970;7.830;2023-08-21T07:28:08;15.52;;;9.30;;
20956;SDS011;10637;47.970;7.830;2023-08-21T07:33:12;15.30;;;8.93;;
20956;SDS011;10637;47.970;7.830;2023-08-21T07:38:13;17.27;;;9.25;;
20956;SDS011;10637;47.970;7.830;2023-08-21T07:43:15;15.18;;;9.13;;
20956;SDS011;10637;47.970;7.830;2023-08-21T07:48:17;13.32;;;8.35;;
20956;SDS011;10637;47.970;7.830;2023-08-21T07:53:19;16.63;;;8.68;;
20956;SDS011;10637;47.970;7.830;2023-08-21T07:58:21;14.98;;;9.43;;
20956;SDS011;10637;47.970;7.830;2023-08-21T08:03:23;15.65;;;9.18;;
20956;SDS011;10637;47.970;7.830;2023-08-21T08:08:24;15.85;;;8.68;;
20956;SDS011;10637;47.970;7.830;2023-08-21T08:13:26;11.13;;;6.75;;
20956;SDS011;10637;47.970;7.830;2023-08-21T08:18:28;16.30;;;9.15;;
20956;SDS011;10637;47.970;7.830;2023-08-21T08:23:30;14.32;;;8.27;;
20956;SDS011;10637;47.970;7.830;2023-08-21T08:28:32;14.93;;;8.38;;
20956;SDS011;10637;47.970;7.830;2023-08-21T08:33:34;15.48;;;9.00;;
20956;SDS011;10637;47.970;7.830;2023-08-21T08:38:35;17.13;;;9.57;;
20956;SDS011;10637;47.970;7.830;2023-08-21T08:43:39;12.57;;;8.23;;
20956;SDS011;10637;47.970;7.830;2023-08-21T08:48:42;14.93;;;8.48;;
20956;SDS011;10637;47.970;7.830;2023-08-21T08:53:43;14.43;;;8.77;;
20956;SDS011;10637;47.970;7.830;2023-08-21T08:58:46;14.20;;;8.75;;
20956;SDS011;10637;47.970;7.830;2023-08-21T09:03:48;14.88;;;8.50;;
20956;SDS011;10637;47.970;7.830;2023-08-21T09:08:55;13.55;;;8.63;;
20956;SDS011;10637;47.970;7.830;2023-08-21T09:13:58;15.23;;;10.07;;
20956;SDS011;10637;47.970;7.830;2023-08-21T09:19:00;14.20;;;8.73;;
20956;SDS011;10637;47.970;7.830;2023-08-21T09:24:02;14.88;;;9.25;;
20956;SDS011;10637;47.970;7.830;2023-08-21T09:29:06;16.17;;;9.20;;
20956;SDS011;10637;47.970;7.830;2023-08-21T09:34:09;18.10;;;10.30;;
20956;SDS011;10637;47.970;7.830;2023-08-21T09:39:15;14.93;;;10.25;;
20956;SDS011;10637;47.970;7.830;2023-08-21T09:44:19;14.68;;;9.05;;
20956;SDS011;10637;47.970;7.830;2023-08-21T09:49:22;16.08;;;9.25;;
20956;SDS011;10637;47.970;7.830;2023-08-21T09:54:24;13.10;;;8.57;;
20956;SDS011;10637;47.970;7.830;2023-08-21T09:59:26;13.60;;;7.88;;
20956;SDS011;10637;47.970;7.830;2023-08-21T10:04:30;13.93;;;8.80;;
20956;SDS011;10637;47.970;7.830;2023-08-21T10:09:35;17.23;;;9.50;;
20956;SDS011;10637;47.970;7.830;2023-08-21T10:14:40;13.73;;;9.23;;
20956;SDS011;10637;47.970;7.830;2023-08-21T10:19:46;15.32;;;8.95;;
20956;SDS011;10637;47.970;7.830;2023-08-21T10:24:55;14.45;;;9.60;;
20956;SDS011;10637;47.970;7.830;2023-08-21T10:30:00;12.70;;;9.32;;
20956;SDS011;10637;47.970;7.830;2023-08-21T10:35:20;13.80;;;9.40;;
20956;SDS011;10637;47.970;7.830;2023-08-21T10:40:26;14.30;;;9.18;;
20956;SDS011;10637;47.970;7.830;2023-08-21T10:45:29;14.85;;;9.25;;
20956;SDS011;10637;47.970;7.830;2023-08-21T10:50:31;14.55;;;8.57;;
20956;SDS011;10637;47.970;7.830;2023-08-21T10:55:36;13.75;;;7.95;;
20956;SDS011;10637;47.970;7.830;2023-08-21T11:00:38;15.10;;;8.77;;
20956;SDS011;10637;47.970;7.830;2023-08-21T11:05:40;14.75;;;8.93;;
20956;SDS011;10637;47.970;7.830;2023-08-21T11:10:41;14.15;;;9.38;;
20956;SDS011;10637;47.970;7.830;2023-08-21T11:15:44;12.43;;;8.18;;
20956;SDS011;10637;47.970;7.830;2023-08-21T11:20:46;12.45;;;7.22;;
20956;SDS011;10637;47.970;7.830;2023-08-21T11:25:48;12.38;;;7.70;;
20956;SDS011;10637;47.970;7.830;2023-08-21T11:30:50;14.00;;;7.82;;
20956;SDS011;10637;47.970;7.830;2023-08-21T11:35:52;13.32;;;7.95;;
20956;SDS011;10637;47.970;7.830;2023-08-21T11:40:59;12.43;;;7.00;;
20956;SDS011;10637;47.970;7.830;2023-08-21T11:46:02;13.50;;;6.30;;
20956;SDS011;10637;47.970;7.830;2023-08-21T11:51:05;12.52;;;7.35;;
20956;SDS011;10637;47.970;7.830;2023-08-21T11:56:14;13.10;;;8.00;;
20956;SDS011;10637;47.970;7.830;2023-08-21T12:01:20;16.80;;;7.40;;
20956;SDS011;10637;47.970;7.830;2023-08-21T12:06:22;12.80;;;9.10;;
20956;SDS011;10637;47.970;7.830;2023-08-21T12:11:24;12.30;;;8.57;;
20956;SDS011;10637;47.970;7.830;2023-08-21T12:16:26;12.45;;;7.60;;
20956;SDS011;10637;47.970;7.830;2023-08-21T12:21:27;13.52;;;7.15;;
20956;SDS011;10637;47.970;7.830;2023-08-21T12:26:30;14.93;;;7.53;;
20956;SDS011;10637;47.970;7.830;2023-08-21T12:31:45;13.73;;;7.00;;
20956;SDS011;10637;47.970;7.830;2023-08-21T12:36:49;12.25;;;7.72;;
20956;SDS011;10637;47.970;7.830;2023-08-21T12:41:52;14.15;;;8.35;;
20956;SDS011;10637;47.970;7.830;2023-08-21T12:46:54;13.15;;;8.35;;
20956;SDS011;10637;47.970;7.830;2023-08-21T12:51:56;13.07;;;6.15;;
20956;SDS011;10637;47.970;7.830;2023-08-21T12:56:57;14.48;;;7.60;;
20956;SDS011;10637;47.970;7.830;2023-08-21T13:01:59;15.55;;;9.70;;
20956;SDS011;10637;47.970;7.830;2023-08-21T13:07:02;12.10;;;8.00;;
20956;SDS011;10637;47.970;7.830;2023-08-21T13:12:04;16.33;;;7.82;;
20956;SDS011;10637;47.970;7.830;2023-08-21T13:17:06;16.48;;;7.68;;
20956;SDS011;10637;47.970;7.830;2023-08-21T13:22:08;14.52;;;8.05;;
20956;SDS011;10637;47.970;7.830;2023-08-21T13:27:10;14.65;;;7.32;;
20956;SDS011;10637;47.970;7.830;2023-08-21T13:32:11;15.38;;;7.78;;
20956;SDS011;10637;47.970;7.830;2023-08-21T13:37:13;15.52;;;6.18;;
20956;SDS011;10637;47.970;7.830;2023-08-21T13:42:15;13.68;;;6.28;;
20956;SDS011;10637;47.970;7.830;2023-08-21T13:47:18;14.63;;;6.45;;
20956;SDS011;10637;47.970;7.830;2023-08-21T13:52:19;15.32;;;6.50;;
20956;SDS011;10637;47.970;7.830;2023-08-21T13:57:21;14.25;;;6.90;;
20956;SDS011;10637;47.970;7.830;2023-08-21T14:02:23;16.10;;;7.40;;
20956;SDS011;10637;47.970;7.830;2023-08-21T14:07:25;13.25;;;6.57;;
20956;SDS011;10637;47.970;7.830;2023-08-21T14:12:28;12.40;;;5.90;;
20956;SDS011;10637;47.970;7.830;2023-08-21T14:17:31;14.43;;;6.55;;
20956;SDS011;10637;47.970;7.830;2023-08-21T14:22:33;13.68;;;6.55;;
20956;SDS011;10637;47.970;7.830;2023-08-21T14:27:35;14.02;;;7.10;;
20956;SDS011;10637;47.970;7.830;2023-08-21T14:32:37;13.20;;;7.45;;
20956;SDS011;10637;47.970;7.830;2023-08-21T14:37:39;14.10;;;6.65;;
20956;SDS011;10637;47.970;7.830;2023-08-21T14:42:41;15.18;;;8.23;;
20956;SDS011;10637;47.970;7.830;2023-08-21T14:47:43;14.23;;;6.50;;
20956;SDS011;10637;47.970;7.830;2023-08-21T14:52:45;13.60;;;7.93;;
20956;SDS011;10637;47.970;7.830;2023-08-21T14:57:49;14.60;;;7.35;;
20956;SDS011;10637;47.970;7.830;2023-08-21T15:02:50;13.32;;;5.55;;
20956;SDS011;10637;47.970;7.830;2023-08-21T15:07:52;12.55;;;6.53;;
20956;SDS011;10637;47.970;7.830;2023-08-21T15:12:55;12.70;;;6.72;;
20956;SDS011;10637;47.970;7.830;2023-08-21T15:17:57;14.48;;;8.15;;
20956;SDS011;10637;47.970;7.830;2023-08-21T15:22:59;14.35;;;5.03;;
20956;SDS011;10637;47.970;7.830;2023-08-21T15:28:01;12.32;;;5.90;;
20956;SDS011;10637;47.970;7.830;2023-08-21T15:33:03;10.65;;;5.45;;
20956;SDS011;10637;47.970;7.830;2023-08-21T15:38:05;14.20;;;6.00;;
20956;SDS011;10637;47.970;7.830;2023-08-21T15:43:07;10.38;;;4.97;;
20956;SDS011;10637;47.970;7.830;2023-08-21T15:48:09;10.55;;;5.50;;
20956;SDS011;10637;47.970;7.830;2023-08-21T15:53:11;12.88;;;5.80;;
20956;SDS011;10637;47.970;7.830;2023-08-21T15:58:14;12.27;;;5.50;;
20956;SDS011;10637;47.970;7.830;2023-08-21T16:03:16;15.07;;;6.35;;
20956;SDS011;10637;47.970;7.830;2023-08-21T16:08:18;14.40;;;5.32;;
20956;SDS011;10637;47.970;7.830;2023-08-21T16:13:20;14.55;;;6.45;;
20956;SDS011;10637;47.970;7.830;2023-08-21T16:18:22;15.10;;;5.90;;
20956;SDS011;10637;47.970;7.830;2023-08-21T16:23:23;12.18;;;5.45;;
20956;SDS011;10637;47.970;7.830;2023-08-21T16:28:25;11.52;;;6.43;;
20956;SDS011;10637;47.970;7.830;2023-08-21T16:33:27;15.68;;;5.68;;
20956;SDS011;10637;47.970;7.830;2023-08-21T16:38:31;16.27;;;6.45;;
20956;SDS011;10637;47.970;7.830;2023-08-21T16:43:34;11.95;;;5.63;;
20956;SDS011;10637;47.970;7.830;2023-08-21T16:48:36;12.55;;;5.22;;
20956;SDS011;10637;47.970;7.830;2023-08-21T16:53:38;13.93;;;5.95;;
20956;SDS011;10637;47.970;7.830;2023-08-21T16:58:42;11.75;;;6.30;;
20956;SDS011;10637;47.970;7.830;2023-08-21T17:03:43;11.88;;;6.20;;
20956;SDS011;10637;47.970;7.830;2023-08-21T17:08:45;15.93;;;5.68;;
20956;SDS011;10637;47.970;7.830;2023-08-21T17:13:47;13.23;;;6.28;;
20956;SDS011;10637;47.970;7.830;2023-08-21T17:18:50;12.75;;;4.90;;
20956;SDS011;10637;47.970;7.830;2023-08-21T17:23:52;11.82;;;5.32;;
20956;SDS011;10637;47.970;7.830;2023-08-21T17:28:54;14.10;;;6.57;;
20956;SDS011;10637;47.970;7.830;2023-08-21T17:33:55;15.07;;;4.82;;
20956;SDS011;10637;47.970;7.830;2023-08-21T17:38:57;13.50;;;5.72;;
20956;SDS011;10637;47.970;7.830;2023-08-21T17:43:59;13.48;;;5.35;;
20956;SDS011;10637;47.970;7.830;2023-08-21T17:49:01;13.57;;;5.20;;
20956;SDS011;10637;47.970;7.830;2023-08-21T17:54:02;11.95;;;4.70;;
20956;SDS011;10637;47.970;7.830;2023-08-21T17:59:04;13.63;;;5.32;;
20956;SDS011;10637;47.970;7.830;2023-08-21T18:04:06;15.93;;;5.57;;
20956;SDS011;10637;47.970;7.830;2023-08-21T18:09:09;14.55;;;6.20;;
20956;SDS011;10637;47.970;7.830;2023-08-21T18:14:11;12.98;;;5.00;;
20956;SDS011;10637;47.970;7.830;2023-08-21T18:19:15;13.70;;;4.60;;
20956;SDS011;10637;47.970;7.830;2023-08-21T18:24:17;11.18;;;5.15;;
20956;SDS011;10637;47.970;7.830;2023-08-21T18:29:18;12.13;;;4.90;;
20956;SDS011;10637;47.970;7.830;2023-08-21T18:34:20;11.55;;;5.35;;
20956;SDS011;10637;47.970;7.830;2023-08-21T18:39:22;15.32;;;5.28;;
20956;SDS011;10637;47.970;7.830;2023-08-21T18:44:24;12.20;;;5.22;;
20956;SDS011;10637;47.970;7.830;2023-08-21T18:49:26;16.00;;;5.78;;
20956;SDS011;10637;47.970;7.830;2023-08-21T18:54:28;16.25;;;6.90;;
20956;SDS011;10637;47.970;7.830;2023-08-21T18:59:30;13.27;;;5.90;;
20956;SDS011;10637;47.970;7.830;2023-08-21T19:04:32;14.30;;;6.00;;
20956;SDS011;10637;47.970;7.830;2023-08-21T19:09:33;11.85;;;5.72;;
20956;SDS011;10637;47.970;7.830;2023-08-21T19:14:35;13.05;;;5.85;;
20956;SDS011;10637;47.970;7.830;2023-08-21T19:19:37;14.75;;;6.88;;
20956;SDS011;10637;47.970;7.830;2023-08-21T19:24:39;14.88;;;6.13;;
20956;SDS011;10637;47.970;7.830;2023-08-21T19:29:41;11.90;;;5.72;;
20956;SDS011;10637;47.970;7.830;2023-08-21T19:34:44;14.73;;;6.60;;
20956;SDS011;10637;47.970;7.830;2023-08-21T19:39:46;12.80;;;5.40;;
20956;SDS011;10637;47.970;7.830;2023-08-21T19:44:48;12.25;;;5.82;;
20956;SDS011;10637;47.970;7.830;2023-08-21T19:49:50;13.40;;;5.75;;
20956;SDS011;10637;47.970;7.830;2023-08-21T19:54:52;17.33;;;5.85;;
20956;SDS011;10637;47.970;7.830;2023-08-21T19:59:54;11.93;;;5.65;;
20956;SDS011;10637;47.970;7.830;2023-08-21T20:04:55;15.68;;;5.90;;
20956;SDS011;10637;47.970;7.830;2023-08-21T20:09:57;10.93;;;5.07;;
20956;SDS011;10637;47.970;7.830;2023-08-21T20:14:59;13.32;;;6.10;;
20956;SDS011;10637;47.970;7.830;2023-08-21T20:20:05;14.82;;;6.20;;
20956;SDS011;10637;47.970;7.830;2023-08-21T20:25:09;11.82;;;6.25;;
20956;SDS011;10637;47.970;7.830;2023-08-21T20:30:12;13.32;;;6.72;;
20956;SDS011;10637;47.970;7.830;2023-08-21T20:35:14;15.63;;;6.32;;
20956;SDS011;10637;47.970;7.830;2023-08-21T20:40:16;13.90;;;6.40;;
20956;SDS011;10637;47.970;7.830;2023-08-21T20:45:18;13.43;;;6.00;;
20956;SDS011;10637;47.970;7.830;2023-08-21T20:50:20;16.80;;;7.25;;
20956;SDS011;10637;47.970;7.830;2023-08-21T20:55:22;19.42;;;7.07;;
20956;SDS011;10637;47.970;7.830;2023-08-21T21:00:23;16.05;;;6.57;;
20956;SDS011;10637;47.970;7.830;2023-08-21T21:05:25;14.45;;;6.28;;
20956;SDS011;10637;47.970;7.830;2023-08-21T21:10:27;13.03;;;6.40;;
20956;SDS011;10637;47.970;7.830;2023-08-21T21:15:31;13.23;;;6.47;;
20956;SDS011;10637;47.970;7.830;2023-08-21T21:20:33;11.63;;;6.27;;
20956;SDS011;10637;47.970;7.830;2023-08-21T21:25:35;12.77;;;5.83;;
20956;SDS011;10637;47.970;7.830;2023-08-21T21:30:37;12.67;;;6.20;;
20956;SDS011;10637;47.970;7.830;2023-08-21T21:35:39;14.57;;;5.73;;
20956;SDS011;10637;47.970;7.830;2023-08-21T21:40:41;12.27;;;5.63;;
20956;SDS011;10637;47.970;7.830;2023-08-21T21:45:45;11.82;;;5.75;;
20956;SDS011;10637;47.970;7.830;2023-08-21T21:50:47;12.63;;;6.47;;
20956;SDS011;10637;47.970;7.830;2023-08-21T21:55:49;12.97;;;6.10;;
20956;SDS011;10637;47.970;7.830;2023-08-21T22:00:51;12.53;;;6.00;;
20956;SDS011;10637;47.970;7.830;2023-08-21T22:05:53;14.10;;;6.70;;
20956;SDS011;10637;47.970;7.830;2023-08-21T22:10:56;14.57;;;6.27;;
20956;SDS011;10637;47.970;7.830;2023-08-21T22:15:58;14.57;;;6.67;;
20956;SDS011;10637;47.970;7.830;2023-08-21T22:21:04;12.30;;;6.13;;
20956;SDS011;10637;47.970;7.830;2023-08-21T22:26:08;13.33;;;6.50;;
20956;SDS011;10637;47.970;7.830;2023-08-21T22:31:10;11.83;;;5.83;;
20956;SDS011;10637;47.970;7.830;2023-08-21T22:36:12;14.40;;;6.80;;
20956;SDS011;10637;47.970;7.830;2023-08-21T22:41:14;12.50;;;6.03;;
20956;SDS011;10637;47.970;7.830;2023-08-21T22:46:16;13.33;;;6.20;;
20956;SDS011;10637;47.970;7.830;2023-08-21T22:51:19;14.53;;;6.47;;
20956;SDS011;10637;47.970;7.830;2023-08-21T22:56:21;12.90;;;6.20;;
20956;SDS011;10637;47.970;7.830;2023-08-21T23:01:22;16.47;;;6.70;;
20956;SDS011;10637;47.970;7.830;2023-08-21T23:06:25;17.43;;;6.70;;
20956;SDS011;10637;47.970;7.830;2023-08-21T23:11:27;15.80;;;6.77;;
20956;SDS011;10637;47.970;7.830;2023-08-21T23:16:29;11.00;;;6.10;;
20956;SDS011;10637;47.970;7.830;2023-08-21T23:21:31;15.57;;;7.17;;
20956;SDS011;10637;47.970;7.830;2023-08-21T23:26:36;14.10;;;6.70;;
20956;SDS011;10637;47.970;7.830;2023-08-21T23:31:38;11.87;;;6.20;;
20956;SDS011;10637;47.970;7.830;2023-08-21T23:36:40;12.33;;;6.50;;
20956;SDS011;10637;47.970;7.830;2023-08-21T23:41:41;13.17;;;7.13;;
20956;SDS011;10637;47.970;7.830;2023-08-21T23:46:45;13.87;;;6.10;;
20956;SDS011;10637;47.970;7.830;2023-08-21T23:51:47;15.47;;;7.00;;
20956;SDS011;10637;47.970;7.830;2023-08-21T23:56:49;13.67;;;7.27;;
